KGCK/GCK METAR and TAF weather

Enter ICAO airport designator
Station Type Date Time Source
KGCK METAR 2020/09/18 16:54 UTC NOAA

KGCK 181654Z 18011KT 10SM CLR 22/14 A3028 RMK AO2 SLP232 T02170144


Station Type Date Time Source
KGCK Decoded METAR 2020/09/18 16:54 UTC NOAA

GARDEN CITY REGIONAL AIRPORT, KS, United States (KGCK) 37-55N 100-43W 877M
Sep 18, 2020 - 12:54 PM EDT / 2020.09.18 1654 UTC
Wind: from the S (180 degrees) at 13 MPH (11 KT):0
Visibility: 10 mile(s):0
Sky conditions: clear
Temperature: 71.1 F (21.7 C)
Dew Point: 57.9 F (14.4 C)
Relative Humidity: 63%
Pressure (altimeter): 30.28 in. Hg (1025 hPa)
ob: KGCK 181654Z 18011KT 10SM CLR 22/14 A3028 RMK AO2 SLP232 T02170144
cycle: 17

Station Type Date Time Source
KGCK TAF 2020/09/18 12:22 UTC NOAA

TAF KGCK 181120Z 1812/1912 19007KT P6SM SKC
FM181800 19012G18KT P6SM SKC

Example: see airport list